sensor_id;sensor_type;location;lat;lon;timestamp;P1;durP1;ratioP1;P2;durP2;ratioP2
45944;SDS011;31655;48.972;10.686;2022-08-19T00:00:25;35.42;;;28.88;;
45944;SDS011;31655;48.972;10.686;2022-08-19T00:02:50;33.50;;;27.95;;
45944;SDS011;31655;48.972;10.686;2022-08-19T00:05:17;39.83;;;27.23;;
45944;SDS011;31655;48.972;10.686;2022-08-19T00:07:43;37.70;;;28.75;;
45944;SDS011;31655;48.972;10.686;2022-08-19T00:10:10;41.22;;;29.90;;
45944;SDS011;31655;48.972;10.686;2022-08-19T00:12:37;36.90;;;28.75;;
45944;SDS011;31655;48.972;10.686;2022-08-19T00:15:04;36.65;;;28.10;;
45944;SDS011;31655;48.972;10.686;2022-08-19T00:17:33;35.33;;;27.25;;
45944;SDS011;31655;48.972;10.686;2022-08-19T00:19:58;40.50;;;30.92;;
45944;SDS011;31655;48.972;10.686;2022-08-19T00:22:24;43.03;;;31.50;;
45944;SDS011;31655;48.972;10.686;2022-08-19T00:24:51;42.90;;;32.75;;
45944;SDS011;31655;48.972;10.686;2022-08-19T00:27:17;42.00;;;32.25;;
45944;SDS011;31655;48.972;10.686;2022-08-19T00:29:43;43.97;;;32.05;;
45944;SDS011;31655;48.972;10.686;2022-08-19T00:32:08;43.83;;;32.03;;
45944;SDS011;31655;48.972;10.686;2022-08-19T00:34:35;40.10;;;30.75;;
45944;SDS011;31655;48.972;10.686;2022-08-19T00:37:01;45.67;;;35.25;;
45944;SDS011;31655;48.972;10.686;2022-08-19T00:39:26;46.40;;;35.03;;
45944;SDS011;31655;48.972;10.686;2022-08-19T00:41:52;45.90;;;34.05;;
45944;SDS011;31655;48.972;10.686;2022-08-19T00:44:19;45.53;;;32.97;;
45944;SDS011;31655;48.972;10.686;2022-08-19T00:46:47;44.42;;;33.92;;
45944;SDS011;31655;48.972;10.686;2022-08-19T00:49:19;42.50;;;33.05;;
45944;SDS011;31655;48.972;10.686;2022-08-19T00:51:49;41.70;;;30.80;;
45944;SDS011;31655;48.972;10.686;2022-08-19T00:54:18;47.33;;;32.97;;
45944;SDS011;31655;48.972;10.686;2022-08-19T00:56:46;44.00;;;32.85;;
45944;SDS011;31655;48.972;10.686;2022-08-19T00:59:13;49.38;;;34.58;;
45944;SDS011;31655;48.972;10.686;2022-08-19T01:01:41;44.70;;;32.38;;
45944;SDS011;31655;48.972;10.686;2022-08-19T01:04:08;44.95;;;33.20;;
45944;SDS011;31655;48.972;10.686;2022-08-19T01:06:35;46.20;;;32.05;;
45944;SDS011;31655;48.972;10.686;2022-08-19T01:09:03;44.88;;;30.92;;
45944;SDS011;31655;48.972;10.686;2022-08-19T01:11:30;41.17;;;31.83;;
45944;SDS011;31655;48.972;10.686;2022-08-19T01:13:58;43.60;;;33.83;;
45944;SDS011;31655;48.972;10.686;2022-08-19T01:16:25;49.33;;;33.20;;
45944;SDS011;31655;48.972;10.686;2022-08-19T01:18:53;46.63;;;32.50;;
45944;SDS011;31655;48.972;10.686;2022-08-19T01:21:31;47.40;;;35.70;;
45944;SDS011;31655;48.972;10.686;2022-08-19T01:24:07;53.97;;;33.47;;
45944;SDS011;31655;48.972;10.686;2022-08-19T01:26:37;48.20;;;33.30;;
45944;SDS011;31655;48.972;10.686;2022-08-19T01:29:06;49.65;;;35.25;;
45944;SDS011;31655;48.972;10.686;2022-08-19T01:31:32;50.25;;;35.35;;
45944;SDS011;31655;48.972;10.686;2022-08-19T01:33:59;50.90;;;35.88;;
45944;SDS011;31655;48.972;10.686;2022-08-19T01:36:28;47.65;;;34.90;;
45944;SDS011;31655;48.972;10.686;2022-08-19T01:38:55;50.17;;;37.40;;
45944;SDS011;31655;48.972;10.686;2022-08-19T01:41:23;58.85;;;38.33;;
45944;SDS011;31655;48.972;10.686;2022-08-19T01:43:49;52.50;;;36.50;;
45944;SDS011;31655;48.972;10.686;2022-08-19T01:46:16;55.55;;;37.78;;
45944;SDS011;31655;48.972;10.686;2022-08-19T01:48:42;56.00;;;39.90;;
45944;SDS011;31655;48.972;10.686;2022-08-19T01:51:09;52.20;;;36.17;;
45944;SDS011;31655;48.972;10.686;2022-08-19T01:53:36;54.40;;;37.60;;
45944;SDS011;31655;48.972;10.686;2022-08-19T01:56:02;54.08;;;36.50;;
45944;SDS011;31655;48.972;10.686;2022-08-19T01:58:35;53.83;;;38.85;;
45944;SDS011;31655;48.972;10.686;2022-08-19T02:01:03;54.72;;;37.17;;
45944;SDS011;31655;48.972;10.686;2022-08-19T02:03:30;55.30;;;37.38;;
45944;SDS011;31655;48.972;10.686;2022-08-19T02:05:57;58.42;;;40.45;;
45944;SDS011;31655;48.972;10.686;2022-08-19T02:08:24;60.63;;;42.67;;
45944;SDS011;31655;48.972;10.686;2022-08-19T02:10:54;60.70;;;41.20;;
45944;SDS011;31655;48.972;10.686;2022-08-19T02:13:21;53.60;;;38.60;;
45944;SDS011;31655;48.972;10.686;2022-08-19T02:15:47;65.35;;;42.60;;
45944;SDS011;31655;48.972;10.686;2022-08-19T02:18:13;63.35;;;43.47;;
45944;SDS011;31655;48.972;10.686;2022-08-19T02:20:39;61.67;;;41.95;;
45944;SDS011;31655;48.972;10.686;2022-08-19T02:23:06;59.67;;;40.78;;
45944;SDS011;31655;48.972;10.686;2022-08-19T02:25:32;70.30;;;45.38;;
45944;SDS011;31655;48.972;10.686;2022-08-19T02:27:58;64.45;;;41.78;;
45944;SDS011;31655;48.972;10.686;2022-08-19T02:30:24;66.38;;;42.70;;
45944;SDS011;31655;48.972;10.686;2022-08-19T02:32:50;60.17;;;40.53;;
45944;SDS011;31655;48.972;10.686;2022-08-19T02:35:17;59.13;;;41.33;;
45944;SDS011;31655;48.972;10.686;2022-08-19T02:37:43;55.95;;;38.63;;
45944;SDS011;31655;48.972;10.686;2022-08-19T02:40:28;60.13;;;39.33;;
45944;SDS011;31655;48.972;10.686;2022-08-19T02:43:01;57.08;;;37.92;;
45944;SDS011;31655;48.972;10.686;2022-08-19T02:45:33;57.28;;;37.40;;
45944;SDS011;31655;48.972;10.686;2022-08-19T02:47:59;58.53;;;39.65;;
45944;SDS011;31655;48.972;10.686;2022-08-19T02:50:25;63.38;;;41.35;;
45944;SDS011;31655;48.972;10.686;2022-08-19T02:52:50;62.28;;;41.13;;
45944;SDS011;31655;48.972;10.686;2022-08-19T02:55:16;62.53;;;42.13;;
45944;SDS011;31655;48.972;10.686;2022-08-19T02:57:42;62.40;;;42.72;;
45944;SDS011;31655;48.972;10.686;2022-08-19T03:00:08;61.85;;;41.83;;
45944;SDS011;31655;48.972;10.686;2022-08-19T03:02:37;66.50;;;44.00;;
45944;SDS011;31655;48.972;10.686;2022-08-19T03:05:03;67.45;;;42.38;;
45944;SDS011;31655;48.972;10.686;2022-08-19T03:07:30;64.32;;;41.65;;
45944;SDS011;31655;48.972;10.686;2022-08-19T03:09:56;68.93;;;43.92;;
45944;SDS011;31655;48.972;10.686;2022-08-19T03:12:21;60.63;;;41.42;;
45944;SDS011;31655;48.972;10.686;2022-08-19T03:14:47;67.93;;;43.92;;
45944;SDS011;31655;48.972;10.686;2022-08-19T03:17:13;69.55;;;42.15;;
45944;SDS011;31655;48.972;10.686;2022-08-19T03:19:38;65.65;;;42.97;;
45944;SDS011;31655;48.972;10.686;2022-08-19T03:22:04;59.75;;;39.15;;
45944;SDS011;31655;48.972;10.686;2022-08-19T03:24:30;60.75;;;40.80;;
45944;SDS011;31655;48.972;10.686;2022-08-19T03:26:56;67.28;;;43.58;;
45944;SDS011;31655;48.972;10.686;2022-08-19T03:29:22;62.63;;;42.78;;
45944;SDS011;31655;48.972;10.686;2022-08-19T03:31:49;63.08;;;41.42;;
45944;SDS011;31655;48.972;10.686;2022-08-19T03:34:19;73.72;;;47.22;;
45944;SDS011;31655;48.972;10.686;2022-08-19T03:36:48;66.45;;;43.53;;
45944;SDS011;31655;48.972;10.686;2022-08-19T03:39:14;69.30;;;45.38;;
45944;SDS011;31655;48.972;10.686;2022-08-19T03:41:41;72.85;;;48.65;;
45944;SDS011;31655;48.972;10.686;2022-08-19T03:44:08;73.85;;;47.10;;
45944;SDS011;31655;48.972;10.686;2022-08-19T03:46:34;70.53;;;44.40;;
45944;SDS011;31655;48.972;10.686;2022-08-19T03:49:02;70.15;;;45.17;;
45944;SDS011;31655;48.972;10.686;2022-08-19T03:51:34;69.30;;;45.55;;
45944;SDS011;31655;48.972;10.686;2022-08-19T03:54:02;69.25;;;44.22;;
45944;SDS011;31655;48.972;10.686;2022-08-19T03:56:33;71.05;;;43.60;;
45944;SDS011;31655;48.972;10.686;2022-08-19T03:59:00;62.47;;;42.85;;
45944;SDS011;31655;48.972;10.686;2022-08-19T04:01:27;68.55;;;47.15;;
45944;SDS011;31655;48.972;10.686;2022-08-19T04:03:55;79.00;;;48.42;;
45944;SDS011;31655;48.972;10.686;2022-08-19T04:06:30;69.78;;;43.83;;
45944;SDS011;31655;48.972;10.686;2022-08-19T04:08:58;67.70;;;44.95;;
45944;SDS011;31655;48.972;10.686;2022-08-19T04:11:27;68.65;;;43.78;;
45944;SDS011;31655;48.972;10.686;2022-08-19T04:13:55;65.28;;;43.80;;
45944;SDS011;31655;48.972;10.686;2022-08-19T04:16:22;66.00;;;42.28;;
45944;SDS011;31655;48.972;10.686;2022-08-19T04:18:49;65.55;;;42.03;;
45944;SDS011;31655;48.972;10.686;2022-08-19T04:21:22;64.78;;;40.45;;
45944;SDS011;31655;48.972;10.686;2022-08-19T04:23:50;66.78;;;41.63;;
45944;SDS011;31655;48.972;10.686;2022-08-19T04:26:37;66.15;;;41.58;;
45944;SDS011;31655;48.972;10.686;2022-08-19T04:29:06;64.20;;;42.53;;
45944;SDS011;31655;48.972;10.686;2022-08-19T04:31:34;73.22;;;40.20;;
45944;SDS011;31655;48.972;10.686;2022-08-19T04:34:00;67.05;;;40.97;;
45944;SDS011;31655;48.972;10.686;2022-08-19T04:36:29;63.88;;;41.45;;
45944;SDS011;31655;48.972;10.686;2022-08-19T04:38:58;64.20;;;39.17;;
45944;SDS011;31655;48.972;10.686;2022-08-19T04:41:27;68.53;;;42.53;;
45944;SDS011;31655;48.972;10.686;2022-08-19T04:44:12;63.65;;;39.65;;
45944;SDS011;31655;48.972;10.686;2022-08-19T04:46:38;63.53;;;38.92;;
45944;SDS011;31655;48.972;10.686;2022-08-19T04:49:04;65.88;;;38.78;;
45944;SDS011;31655;48.972;10.686;2022-08-19T04:51:31;65.90;;;41.38;;
45944;SDS011;31655;48.972;10.686;2022-08-19T04:53:58;60.33;;;39.88;;
45944;SDS011;31655;48.972;10.686;2022-08-19T04:56:25;61.55;;;39.28;;
45944;SDS011;31655;48.972;10.686;2022-08-19T04:58:52;66.65;;;41.28;;
45944;SDS011;31655;48.972;10.686;2022-08-19T05:01:20;62.42;;;40.20;;
45944;SDS011;31655;48.972;10.686;2022-08-19T05:03:48;60.10;;;38.83;;
45944;SDS011;31655;48.972;10.686;2022-08-19T05:06:15;63.58;;;40.80;;
45944;SDS011;31655;48.972;10.686;2022-08-19T05:08:43;62.28;;;40.50;;
45944;SDS011;31655;48.972;10.686;2022-08-19T05:11:14;61.85;;;39.95;;
45944;SDS011;31655;48.972;10.686;2022-08-19T05:13:40;62.75;;;39.22;;
45944;SDS011;31655;48.972;10.686;2022-08-19T05:16:07;70.35;;;41.30;;
45944;SDS011;31655;48.972;10.686;2022-08-19T05:18:34;60.60;;;38.42;;
45944;SDS011;31655;48.972;10.686;2022-08-19T05:21:19;70.18;;;41.90;;
45944;SDS011;31655;48.972;10.686;2022-08-19T05:24:04;63.95;;;40.60;;
45944;SDS011;31655;48.972;10.686;2022-08-19T05:26:33;62.42;;;40.97;;
45944;SDS011;31655;48.972;10.686;2022-08-19T05:29:00;58.42;;;37.15;;
45944;SDS011;31655;48.972;10.686;2022-08-19T05:31:26;57.25;;;38.60;;
45944;SDS011;31655;48.972;10.686;2022-08-19T05:33:51;62.33;;;36.28;;
45944;SDS011;31655;48.972;10.686;2022-08-19T05:36:17;66.47;;;42.53;;
45944;SDS011;31655;48.972;10.686;2022-08-19T05:38:44;65.47;;;39.03;;
45944;SDS011;31655;48.972;10.686;2022-08-19T05:41:11;64.97;;;39.42;;
45944;SDS011;31655;48.972;10.686;2022-08-19T05:43:41;63.28;;;39.40;;
45944;SDS011;31655;48.972;10.686;2022-08-19T05:46:07;59.40;;;37.95;;
45944;SDS011;31655;48.972;10.686;2022-08-19T05:48:33;62.95;;;39.15;;
45944;SDS011;31655;48.972;10.686;2022-08-19T05:51:06;64.18;;;40.20;;
45944;SDS011;31655;48.972;10.686;2022-08-19T05:53:33;55.95;;;37.58;;
45944;SDS011;31655;48.972;10.686;2022-08-19T05:56:06;62.42;;;39.15;;
45944;SDS011;31655;48.972;10.686;2022-08-19T05:58:34;63.30;;;38.80;;
45944;SDS011;31655;48.972;10.686;2022-08-19T06:01:00;63.67;;;39.85;;
45944;SDS011;31655;48.972;10.686;2022-08-19T06:03:30;65.35;;;41.35;;
45944;SDS011;31655;48.972;10.686;2022-08-19T06:05:56;63.50;;;39.53;;
45944;SDS011;31655;48.972;10.686;2022-08-19T06:08:24;61.75;;;39.25;;
45944;SDS011;31655;48.972;10.686;2022-08-19T06:10:49;60.90;;;37.88;;
45944;SDS011;31655;48.972;10.686;2022-08-19T06:13:15;60.50;;;37.25;;
45944;SDS011;31655;48.972;10.686;2022-08-19T06:15:41;63.03;;;39.08;;
45944;SDS011;31655;48.972;10.686;2022-08-19T06:18:09;62.08;;;38.10;;
45944;SDS011;31655;48.972;10.686;2022-08-19T06:20:34;65.72;;;39.25;;
45944;SDS011;31655;48.972;10.686;2022-08-19T06:23:00;64.00;;;38.00;;
45944;SDS011;31655;48.972;10.686;2022-08-19T06:25:25;60.50;;;38.47;;
45944;SDS011;31655;48.972;10.686;2022-08-19T06:27:51;67.32;;;39.85;;
45944;SDS011;31655;48.972;10.686;2022-08-19T06:30:17;65.72;;;40.30;;
45944;SDS011;31655;48.972;10.686;2022-08-19T06:32:43;63.97;;;39.45;;
45944;SDS011;31655;48.972;10.686;2022-08-19T06:35:08;59.53;;;37.83;;
45944;SDS011;31655;48.972;10.686;2022-08-19T06:37:34;61.40;;;38.70;;
45944;SDS011;31655;48.972;10.686;2022-08-19T06:40:02;57.30;;;36.53;;
45944;SDS011;31655;48.972;10.686;2022-08-19T06:42:28;51.85;;;35.25;;
45944;SDS011;31655;48.972;10.686;2022-08-19T06:44:55;59.45;;;36.40;;
45944;SDS011;31655;48.972;10.686;2022-08-19T06:47:21;57.10;;;34.30;;
45944;SDS011;31655;48.972;10.686;2022-08-19T06:49:47;58.90;;;36.65;;
45944;SDS011;31655;48.972;10.686;2022-08-19T06:52:12;57.95;;;36.90;;
45944;SDS011;31655;48.972;10.686;2022-08-19T06:54:39;59.25;;;36.65;;
45944;SDS011;31655;48.972;10.686;2022-08-19T06:57:07;59.72;;;37.67;;
45944;SDS011;31655;48.972;10.686;2022-08-19T06:59:38;53.85;;;36.80;;
45944;SDS011;31655;48.972;10.686;2022-08-19T07:02:04;54.78;;;36.17;;
45944;SDS011;31655;48.972;10.686;2022-08-19T07:04:32;59.72;;;35.88;;
45944;SDS011;31655;48.972;10.686;2022-08-19T07:07:00;52.72;;;33.72;;
45944;SDS011;31655;48.972;10.686;2022-08-19T07:09:31;57.60;;;36.35;;
45944;SDS011;31655;48.972;10.686;2022-08-19T07:11:57;57.08;;;35.15;;
45944;SDS011;31655;48.972;10.686;2022-08-19T07:14:23;57.75;;;38.17;;
45944;SDS011;31655;48.972;10.686;2022-08-19T07:16:52;58.97;;;36.55;;
45944;SDS011;31655;48.972;10.686;2022-08-19T07:19:20;58.00;;;37.40;;
45944;SDS011;31655;48.972;10.686;2022-08-19T07:21:47;55.60;;;35.65;;
45944;SDS011;31655;48.972;10.686;2022-08-19T07:24:14;55.88;;;34.78;;
45944;SDS011;31655;48.972;10.686;2022-08-19T07:26:42;57.15;;;35.78;;
45944;SDS011;31655;48.972;10.686;2022-08-19T07:29:09;59.63;;;36.00;;
45944;SDS011;31655;48.972;10.686;2022-08-19T07:31:35;60.80;;;39.45;;
45944;SDS011;31655;48.972;10.686;2022-08-19T07:34:02;60.63;;;37.88;;
45944;SDS011;31655;48.972;10.686;2022-08-19T07:36:33;58.17;;;36.58;;
45944;SDS011;31655;48.972;10.686;2022-08-19T07:39:02;56.08;;;35.00;;
45944;SDS011;31655;48.972;10.686;2022-08-19T07:41:30;59.80;;;36.38;;
45944;SDS011;31655;48.972;10.686;2022-08-19T07:43:58;54.50;;;36.17;;
45944;SDS011;31655;48.972;10.686;2022-08-19T07:46:30;61.25;;;37.78;;
45944;SDS011;31655;48.972;10.686;2022-08-19T07:48:56;63.75;;;38.63;;
45944;SDS011;31655;48.972;10.686;2022-08-19T07:51:22;63.17;;;38.10;;
45944;SDS011;31655;48.972;10.686;2022-08-19T07:53:48;64.82;;;37.72;;
45944;SDS011;31655;48.972;10.686;2022-08-19T07:56:15;59.05;;;37.90;;
45944;SDS011;31655;48.972;10.686;2022-08-19T07:58:43;58.22;;;36.97;;
45944;SDS011;31655;48.972;10.686;2022-08-19T08:01:12;54.90;;;34.65;;
45944;SDS011;31655;48.972;10.686;2022-08-19T08:03:41;60.17;;;38.40;;
45944;SDS011;31655;48.972;10.686;2022-08-19T08:06:25;63.03;;;37.95;;
45944;SDS011;31655;48.972;10.686;2022-08-19T08:09:11;56.97;;;37.22;;
45944;SDS011;31655;48.972;10.686;2022-08-19T08:11:53;61.38;;;36.63;;
45944;SDS011;31655;48.972;10.686;2022-08-19T08:14:30;53.65;;;34.92;;
45944;SDS011;31655;48.972;10.686;2022-08-19T08:17:00;50.58;;;35.03;;
45944;SDS011;31655;48.972;10.686;2022-08-19T08:19:27;53.03;;;34.67;;
45944;SDS011;31655;48.972;10.686;2022-08-19T08:21:54;51.80;;;34.78;;
45944;SDS011;31655;48.972;10.686;2022-08-19T08:24:22;51.45;;;33.58;;
45944;SDS011;31655;48.972;10.686;2022-08-19T08:26:48;53.17;;;35.15;;
45944;SDS011;31655;48.972;10.686;2022-08-19T08:29:14;50.55;;;32.33;;
45944;SDS011;31655;48.972;10.686;2022-08-19T08:31:40;50.28;;;32.35;;
45944;SDS011;31655;48.972;10.686;2022-08-19T08:34:07;50.28;;;33.67;;
45944;SDS011;31655;48.972;10.686;2022-08-19T08:36:36;43.75;;;30.23;;
45944;SDS011;31655;48.972;10.686;2022-08-19T08:39:08;46.95;;;29.98;;
45944;SDS011;31655;48.972;10.686;2022-08-19T08:41:50;44.03;;;30.10;;
45944;SDS011;31655;48.972;10.686;2022-08-19T08:47:36;46.10;;;32.15;;
45944;SDS011;31655;48.972;10.686;2022-08-19T08:50:05;47.78;;;31.48;;
45944;SDS011;31655;48.972;10.686;2022-08-19T08:52:37;49.72;;;33.47;;
45944;SDS011;31655;48.972;10.686;2022-08-19T08:55:08;47.88;;;31.38;;
45944;SDS011;31655;48.972;10.686;2022-08-19T09:02:54;46.42;;;32.90;;
45944;SDS011;31655;48.972;10.686;2022-08-19T09:05:22;45.78;;;32.67;;
45944;SDS011;31655;48.972;10.686;2022-08-19T09:10:47;58.53;;;33.92;;
45944;SDS011;31655;48.972;10.686;2022-08-19T09:13:28;51.38;;;33.15;;
45944;SDS011;31655;48.972;10.686;2022-08-19T09:16:19;42.28;;;30.58;;
45944;SDS011;31655;48.972;10.686;2022-08-19T09:18:50;39.83;;;28.88;;
45944;SDS011;31655;48.972;10.686;2022-08-19T09:21:19;40.90;;;29.83;;
45944;SDS011;31655;48.972;10.686;2022-08-19T09:23:45;44.72;;;30.23;;
45944;SDS011;31655;48.972;10.686;2022-08-19T09:26:12;47.88;;;35.17;;
45944;SDS011;31655;48.972;10.686;2022-08-19T09:28:40;48.38;;;32.22;;
45944;SDS011;31655;48.972;10.686;2022-08-19T09:31:09;43.38;;;32.08;;
45944;SDS011;31655;48.972;10.686;2022-08-19T09:33:36;42.25;;;29.80;;
45944;SDS011;31655;48.972;10.686;2022-08-19T09:36:03;43.05;;;30.05;;
45944;SDS011;31655;48.972;10.686;2022-08-19T09:38:33;41.83;;;30.13;;
45944;SDS011;31655;48.972;10.686;2022-08-19T09:41:06;39.78;;;30.67;;
45944;SDS011;31655;48.972;10.686;2022-08-19T09:43:34;44.60;;;36.60;;
45944;SDS011;31655;48.972;10.686;2022-08-19T09:46:01;44.75;;;31.42;;
45944;SDS011;31655;48.972;10.686;2022-08-19T09:48:30;44.65;;;35.83;;
45944;SDS011;31655;48.972;10.686;2022-08-19T09:51:02;41.58;;;30.98;;
45944;SDS011;31655;48.972;10.686;2022-08-19T09:53:33;44.90;;;31.02;;
45944;SDS011;31655;48.972;10.686;2022-08-19T09:55:59;42.47;;;31.33;;
45944;SDS011;31655;48.972;10.686;2022-08-19T09:58:25;41.58;;;30.08;;
45944;SDS011;31655;48.972;10.686;2022-08-19T10:00:53;40.80;;;31.85;;
45944;SDS011;31655;48.972;10.686;2022-08-19T10:03:19;36.65;;;29.08;;
45944;SDS011;31655;48.972;10.686;2022-08-19T10:05:45;42.55;;;28.40;;
45944;SDS011;31655;48.972;10.686;2022-08-19T10:08:14;42.83;;;27.33;;
45944;SDS011;31655;48.972;10.686;2022-08-19T10:10:41;38.72;;;27.15;;
45944;SDS011;31655;48.972;10.686;2022-08-19T10:13:08;38.10;;;26.88;;
45944;SDS011;31655;48.972;10.686;2022-08-19T10:15:34;41.13;;;29.10;;
45944;SDS011;31655;48.972;10.686;2022-08-19T10:18:00;38.28;;;27.73;;
45944;SDS011;31655;48.972;10.686;2022-08-19T10:20:26;40.17;;;29.52;;
45944;SDS011;31655;48.972;10.686;2022-08-19T10:22:52;45.35;;;30.80;;
45944;SDS011;31655;48.972;10.686;2022-08-19T10:25:17;43.33;;;30.83;;
45944;SDS011;31655;48.972;10.686;2022-08-19T10:27:43;38.70;;;29.35;;
45944;SDS011;31655;48.972;10.686;2022-08-19T10:30:09;43.42;;;30.10;;
45944;SDS011;31655;48.972;10.686;2022-08-19T10:32:35;47.40;;;30.15;;
45944;SDS011;31655;48.972;10.686;2022-08-19T10:35:02;39.53;;;29.10;;
45944;SDS011;31655;48.972;10.686;2022-08-19T10:37:32;40.00;;;27.60;;
45944;SDS011;31655;48.972;10.686;2022-08-19T10:39:59;43.95;;;30.08;;
45944;SDS011;31655;48.972;10.686;2022-08-19T10:42:25;46.88;;;32.03;;
45944;SDS011;31655;48.972;10.686;2022-08-19T10:44:50;44.65;;;29.45;;
45944;SDS011;31655;48.972;10.686;2022-08-19T10:47:16;42.92;;;30.08;;
45944;SDS011;31655;48.972;10.686;2022-08-19T10:49:41;44.95;;;30.95;;
45944;SDS011;31655;48.972;10.686;2022-08-19T10:52:25;40.88;;;28.80;;
45944;SDS011;31655;48.972;10.686;2022-08-19T10:55:03;40.53;;;28.55;;
45944;SDS011;31655;48.972;10.686;2022-08-19T10:57:49;40.88;;;29.48;;
45944;SDS011;31655;48.972;10.686;2022-08-19T11:00:14;47.15;;;30.80;;
45944;SDS011;31655;48.972;10.686;2022-08-19T11:02:40;47.55;;;32.90;;
45944;SDS011;31655;48.972;10.686;2022-08-19T11:05:07;49.58;;;32.17;;
45944;SDS011;31655;48.972;10.686;2022-08-19T11:07:35;41.67;;;29.55;;
45944;SDS011;31655;48.972;10.686;2022-08-19T11:10:02;44.75;;;29.85;;
45944;SDS011;31655;48.972;10.686;2022-08-19T11:12:28;49.50;;;33.45;;
45944;SDS011;31655;48.972;10.686;2022-08-19T11:14:54;45.58;;;32.90;;
45944;SDS011;31655;48.972;10.686;2022-08-19T11:17:19;42.28;;;29.48;;
45944;SDS011;31655;48.972;10.686;2022-08-19T11:19:48;43.08;;;30.17;;
45944;SDS011;31655;48.972;10.686;2022-08-19T11:22:14;41.70;;;31.58;;
45944;SDS011;31655;48.972;10.686;2022-08-19T11:24:39;41.45;;;31.02;;
45944;SDS011;31655;48.972;10.686;2022-08-19T11:27:07;39.70;;;29.50;;
45944;SDS011;31655;48.972;10.686;2022-08-19T11:29:34;44.42;;;31.65;;
45944;SDS011;31655;48.972;10.686;2022-08-19T11:32:03;46.35;;;32.03;;
45944;SDS011;31655;48.972;10.686;2022-08-19T11:34:32;45.90;;;30.08;;
45944;SDS011;31655;48.972;10.686;2022-08-19T11:37:00;46.47;;;30.95;;
45944;SDS011;31655;48.972;10.686;2022-08-19T11:39:27;43.15;;;30.25;;
45944;SDS011;31655;48.972;10.686;2022-08-19T11:41:55;41.30;;;28.88;;
45944;SDS011;31655;48.972;10.686;2022-08-19T11:44:22;43.28;;;30.50;;
45944;SDS011;31655;48.972;10.686;2022-08-19T11:46:48;42.85;;;30.27;;
45944;SDS011;31655;48.972;10.686;2022-08-19T11:49:14;42.90;;;29.77;;
45944;SDS011;31655;48.972;10.686;2022-08-19T11:51:44;39.08;;;27.02;;
45944;SDS011;31655;48.972;10.686;2022-08-19T11:54:10;51.63;;;32.78;;
45944;SDS011;31655;48.972;10.686;2022-08-19T11:56:37;44.05;;;30.90;;
45944;SDS011;31655;48.972;10.686;2022-08-19T11:59:03;48.38;;;32.80;;
45944;SDS011;31655;48.972;10.686;2022-08-19T12:01:29;44.70;;;32.05;;
45944;SDS011;31655;48.972;10.686;2022-08-19T12:03:55;44.60;;;31.40;;
45944;SDS011;31655;48.972;10.686;2022-08-19T12:06:22;44.85;;;32.67;;
45944;SDS011;31655;48.972;10.686;2022-08-19T12:08:50;45.20;;;33.63;;
45944;SDS011;31655;48.972;10.686;2022-08-19T12:11:16;48.88;;;34.42;;
45944;SDS011;31655;48.972;10.686;2022-08-19T12:13:42;44.10;;;32.88;;
45944;SDS011;31655;48.972;10.686;2022-08-19T12:16:12;47.70;;;35.45;;
45944;SDS011;31655;48.972;10.686;2022-08-19T12:18:40;43.95;;;32.85;;
45944;SDS011;31655;48.972;10.686;2022-08-19T12:21:08;49.83;;;36.08;;
45944;SDS011;31655;48.972;10.686;2022-08-19T12:23:36;48.17;;;33.58;;
45944;SDS011;31655;48.972;10.686;2022-08-19T12:26:03;56.85;;;35.60;;
45944;SDS011;31655;48.972;10.686;2022-08-19T12:28:29;43.30;;;34.28;;
45944;SDS011;31655;48.972;10.686;2022-08-19T12:30:56;60.58;;;36.35;;
45944;SDS011;31655;48.972;10.686;2022-08-19T12:33:22;44.17;;;32.97;;
45944;SDS011;31655;48.972;10.686;2022-08-19T12:35:52;48.72;;;34.55;;
45944;SDS011;31655;48.972;10.686;2022-08-19T12:38:18;51.20;;;35.67;;
45944;SDS011;31655;48.972;10.686;2022-08-19T12:40:47;53.58;;;36.88;;
45944;SDS011;31655;48.972;10.686;2022-08-19T12:43:14;52.70;;;35.30;;
45944;SDS011;31655;48.972;10.686;2022-08-19T12:45:44;57.45;;;39.45;;
45944;SDS011;31655;48.972;10.686;2022-08-19T12:48:10;54.47;;;37.25;;
45944;SDS011;31655;48.972;10.686;2022-08-19T12:50:35;63.38;;;42.42;;
45944;SDS011;31655;48.972;10.686;2022-08-19T12:53:03;60.33;;;41.83;;
45944;SDS011;31655;48.972;10.686;2022-08-19T12:55:29;60.92;;;41.00;;
45944;SDS011;31655;48.972;10.686;2022-08-19T12:57:55;62.60;;;42.92;;
45944;SDS011;31655;48.972;10.686;2022-08-19T13:00:21;55.63;;;40.28;;
45944;SDS011;31655;48.972;10.686;2022-08-19T13:02:48;62.67;;;41.83;;
45944;SDS011;31655;48.972;10.686;2022-08-19T13:05:17;64.80;;;42.00;;
45944;SDS011;31655;48.972;10.686;2022-08-19T13:07:47;62.30;;;41.53;;
45944;SDS011;31655;48.972;10.686;2022-08-19T13:10:15;64.82;;;42.70;;
45944;SDS011;31655;48.972;10.686;2022-08-19T13:12:43;63.90;;;45.42;;
45944;SDS011;31655;48.972;10.686;2022-08-19T13:15:10;60.70;;;40.40;;
45944;SDS011;31655;48.972;10.686;2022-08-19T13:17:37;61.22;;;43.45;;
45944;SDS011;31655;48.972;10.686;2022-08-19T13:20:04;65.30;;;43.72;;
45944;SDS011;31655;48.972;10.686;2022-08-19T13:22:32;58.05;;;41.90;;
45944;SDS011;31655;48.972;10.686;2022-08-19T13:24:58;64.03;;;42.53;;
45944;SDS011;31655;48.972;10.686;2022-08-19T13:27:23;61.80;;;41.60;;
45944;SDS011;31655;48.972;10.686;2022-08-19T13:29:49;62.70;;;42.08;;
45944;SDS011;31655;48.972;10.686;2022-08-19T13:32:33;53.08;;;36.20;;
45944;SDS011;31655;48.972;10.686;2022-08-19T13:35:17;49.63;;;35.13;;
45944;SDS011;31655;48.972;10.686;2022-08-19T13:37:43;48.15;;;32.88;;
45944;SDS011;31655;48.972;10.686;2022-08-19T13:40:14;42.45;;;30.42;;
45944;SDS011;31655;48.972;10.686;2022-08-19T13:42:45;36.33;;;27.77;;
45944;SDS011;31655;48.972;10.686;2022-08-19T13:45:13;28.40;;;21.60;;
45944;SDS011;31655;48.972;10.686;2022-08-19T13:47:55;27.40;;;21.75;;
45944;SDS011;31655;48.972;10.686;2022-08-19T13:50:22;34.83;;;23.48;;
45944;SDS011;31655;48.972;10.686;2022-08-19T13:52:50;35.78;;;25.95;;
45944;SDS011;31655;48.972;10.686;2022-08-19T13:55:17;39.13;;;27.65;;
45944;SDS011;31655;48.972;10.686;2022-08-19T13:57:42;39.03;;;27.95;;
45944;SDS011;31655;48.972;10.686;2022-08-19T14:00:11;49.92;;;34.50;;
45944;SDS011;31655;48.972;10.686;2022-08-19T14:02:40;56.33;;;37.53;;
45944;SDS011;31655;48.972;10.686;2022-08-19T14:05:08;57.88;;;38.03;;
45944;SDS011;31655;48.972;10.686;2022-08-19T14:07:36;66.10;;;41.80;;
45944;SDS011;31655;48.972;10.686;2022-08-19T14:10:02;66.93;;;43.33;;
45944;SDS011;31655;48.972;10.686;2022-08-19T14:12:31;65.05;;;42.40;;
45944;SDS011;31655;48.972;10.686;2022-08-19T14:14:57;67.65;;;43.92;;
45944;SDS011;31655;48.972;10.686;2022-08-19T14:17:23;68.40;;;46.30;;
45944;SDS011;31655;48.972;10.686;2022-08-19T14:19:49;63.13;;;43.67;;
45944;SDS011;31655;48.972;10.686;2022-08-19T14:22:20;61.33;;;42.50;;
45944;SDS011;31655;48.972;10.686;2022-08-19T14:24:46;59.28;;;42.03;;